createdAt,value
2023-05-20T00:01:50.092Z,8.34
2023-05-20T00:04:17.277Z,8.27
2023-05-20T00:06:44.436Z,8.22
2023-05-20T00:09:11.541Z,8.19
2023-05-20T00:11:38.688Z,8.14
2023-05-20T00:14:05.654Z,8.05
2023-05-20T00:16:32.893Z,8.04
2023-05-20T00:19:00.034Z,7.97
2023-05-20T00:21:27.522Z,7.92
2023-05-20T00:23:54.566Z,7.86
2023-05-20T00:26:21.584Z,7.81
2023-05-20T00:28:54.243Z,7.76
2023-05-20T00:31:21.826Z,7.80
2023-05-20T00:33:49.142Z,7.84
2023-05-20T00:36:16.384Z,7.87
2023-05-20T00:38:43.504Z,7.91
2023-05-20T00:41:10.545Z,7.94
2023-05-20T00:43:37.610Z,7.92
2023-05-20T00:46:04.868Z,7.90
2023-05-20T00:48:36.200Z,7.93
2023-05-20T00:51:05.144Z,7.90
2023-05-20T00:53:32.366Z,7.81
2023-05-20T00:55:59.447Z,7.72
2023-05-20T00:58:26.531Z,7.67
2023-05-20T01:00:53.537Z,7.66
2023-05-20T01:03:20.873Z,7.57
2023-05-20T01:05:48.346Z,7.48
2023-05-20T01:08:15.438Z,7.46
2023-05-20T01:10:42.989Z,7.46
2023-05-20T01:13:11.761Z,7.37
2023-05-20T01:15:39.281Z,7.35
2023-05-20T01:18:06.535Z,7.33
2023-05-20T01:20:33.701Z,7.30
2023-05-20T01:23:00.836Z,7.30
2023-05-20T01:25:27.832Z,7.21
2023-05-20T01:27:55.938Z,7.17
2023-05-20T01:30:26.837Z,7.16
2023-05-20T01:33:07.060Z,7.11
2023-05-20T01:35:34.284Z,7.03
2023-05-20T01:38:01.526Z,7.04
2023-05-20T01:40:29.094Z,7.03
2023-05-20T01:42:56.664Z,7.04
2023-05-20T01:45:24.722Z,7.05
2023-05-20T01:47:51.970Z,7.08
2023-05-20T01:50:19.604Z,7.05
2023-05-20T01:52:46.786Z,7.10
2023-05-20T01:55:14.221Z,7.12
2023-05-20T01:57:42.070Z,7.13
2023-05-20T02:00:10.884Z,7.16
2023-05-20T02:02:41.601Z,7.18
2023-05-20T02:05:11.410Z,7.21
2023-05-20T02:07:38.581Z,7.24
2023-05-20T02:10:06.506Z,7.28
2023-05-20T02:12:36.891Z,7.31
2023-05-20T02:15:06.321Z,7.36
2023-05-20T02:17:34.788Z,7.37
2023-05-20T02:20:22.126Z,7.43
2023-05-20T02:22:49.262Z,7.48
2023-05-20T02:25:16.630Z,7.52
2023-05-20T02:27:44.620Z,7.56
2023-05-20T02:30:12.182Z,7.59
2023-05-20T02:32:39.203Z,7.63
2023-05-20T02:35:06.840Z,7.72
2023-05-20T02:37:34.576Z,7.77
2023-05-20T02:40:01.732Z,7.82
2023-05-20T02:42:32.037Z,7.88
2023-05-20T02:44:59.393Z,7.93
2023-05-20T02:47:27.243Z,7.95
2023-05-20T02:49:54.274Z,7.97
2023-05-20T02:52:22.153Z,8.05
2023-05-20T02:54:49.357Z,8.10
2023-05-20T02:57:16.355Z,8.19
2023-05-20T02:59:43.573Z,8.31
2023-05-20T03:02:10.824Z,8.43
2023-05-20T03:04:41.225Z,8.50
2023-05-20T03:07:09.096Z,8.54
2023-05-20T03:09:36.853Z,8.55
2023-05-20T03:12:05.467Z,8.61
2023-05-20T03:14:32.724Z,8.66
2023-05-20T03:17:00.193Z,8.74
2023-05-20T03:19:27.588Z,8.79
2023-05-20T03:21:54.922Z,8.87
2023-05-20T03:24:23.640Z,8.94
2023-05-20T03:26:51.059Z,9.06
2023-05-20T03:29:18.343Z,9.21
2023-05-20T03:31:46.530Z,9.33
2023-05-20T03:34:14.170Z,9.41
2023-05-20T03:36:41.634Z,9.55
2023-05-20T03:39:08.871Z,9.72
2023-05-20T03:41:36.186Z,9.85
2023-05-20T03:44:03.792Z,10.02
2023-05-20T03:46:32.752Z,10.14
2023-05-20T03:49:02.166Z,10.27
2023-05-20T03:51:30.359Z,10.44
2023-05-20T03:54:03.522Z,10.64
2023-05-20T03:56:30.933Z,10.80
2023-05-20T03:58:58.345Z,11.02
2023-05-20T04:01:26.028Z,11.26
2023-05-20T04:03:53.582Z,11.40
2023-05-20T04:06:22.595Z,11.57
2023-05-20T04:08:51.049Z,11.73
2023-05-20T04:11:21.522Z,11.93
2023-05-20T04:13:49.143Z,12.09
2023-05-20T04:16:16.806Z,12.30
2023-05-20T04:18:46.154Z,12.44
2023-05-20T04:21:14.161Z,12.50
2023-05-20T04:23:41.834Z,12.61
2023-05-20T04:26:09.064Z,12.79
2023-05-20T04:28:37.870Z,12.96
2023-05-20T04:31:06.256Z,13.09
2023-05-20T04:33:38.392Z,13.23
2023-05-20T04:36:12.199Z,13.38
2023-05-20T04:38:42.440Z,13.55
2023-05-20T04:41:09.808Z,13.72
2023-05-20T04:43:39.129Z,13.92
2023-05-20T04:46:06.555Z,14.04
2023-05-20T04:48:34.484Z,14.17
2023-05-20T04:51:02.305Z,14.28
2023-05-20T04:53:31.109Z,14.42
2023-05-20T04:55:58.250Z,14.52
2023-05-20T04:58:25.443Z,14.51
2023-05-20T05:00:53.171Z,14.54
2023-05-20T05:03:20.322Z,14.68
2023-05-20T05:05:48.539Z,14.84
2023-05-20T05:08:16.811Z,14.98
2023-05-20T05:10:49.252Z,15.11
2023-05-20T05:13:16.405Z,15.33
2023-05-20T05:15:43.718Z,15.44
2023-05-20T05:18:12.308Z,15.45
2023-05-20T05:20:39.626Z,15.43
2023-05-20T05:23:07.249Z,15.49
2023-05-20T05:25:34.597Z,15.68
2023-05-20T05:28:01.830Z,15.78
2023-05-20T05:30:28.912Z,15.84
2023-05-20T05:32:56.312Z,15.90
2023-05-20T05:35:23.629Z,16.02
2023-05-20T05:37:51.020Z,16.15
2023-05-20T05:40:18.214Z,16.29
2023-05-20T05:42:45.611Z,16.36
2023-05-20T05:45:13.050Z,16.23
2023-05-20T05:47:43.016Z,16.17
2023-05-20T05:50:10.497Z,16.20
2023-05-20T05:52:38.261Z,16.17
2023-05-20T05:55:09.661Z,16.19
2023-05-20T05:57:37.004Z,16.30
2023-05-20T06:00:05.032Z,16.38
2023-05-20T06:02:46.551Z,16.38
2023-05-20T06:05:24.525Z,16.34
2023-05-20T06:07:53.940Z,16.40
2023-05-20T06:10:21.328Z,16.36
2023-05-20T06:12:49.349Z,16.32
2023-05-20T06:15:17.803Z,16.33
2023-05-20T06:17:45.752Z,16.47
2023-05-20T06:20:13.624Z,16.54
2023-05-20T06:22:40.932Z,16.57
2023-05-20T06:25:09.437Z,16.69
2023-05-20T06:27:37.230Z,16.84
2023-05-20T06:30:06.840Z,17.02
2023-05-20T06:32:34.095Z,17.09
2023-05-20T06:35:01.280Z,17.24
2023-05-20T06:37:30.452Z,17.26
2023-05-20T06:39:57.900Z,17.38
2023-05-20T06:42:24.985Z,17.46
2023-05-20T06:45:03.580Z,17.65
2023-05-20T06:47:50.124Z,17.66
2023-05-20T06:50:17.375Z,17.74
2023-05-20T06:52:45.038Z,17.75
2023-05-20T06:55:13.141Z,17.77
2023-05-20T06:57:40.842Z,17.67
2023-05-20T07:00:09.217Z,17.61
2023-05-20T07:02:40.747Z,17.50
2023-05-20T07:05:08.474Z,17.39
2023-05-20T07:07:35.671Z,17.40
2023-05-20T07:10:05.791Z,17.47
2023-05-20T07:12:34.984Z,17.43
2023-05-20T07:15:03.979Z,17.41
2023-05-20T07:17:33.200Z,17.34
2023-05-20T07:20:00.366Z,17.27
2023-05-20T07:22:27.711Z,17.46
2023-05-20T07:25:14.934Z,17.72
2023-05-20T07:27:42.176Z,17.87
2023-05-20T07:30:09.751Z,18.03
2023-05-20T07:32:38.024Z,18.12
2023-05-20T07:35:06.753Z,17.98
2023-05-20T07:37:33.885Z,18.05
2023-05-20T07:40:02.132Z,18.27
2023-05-20T07:42:32.300Z,18.53
2023-05-20T07:45:01.466Z,18.74
2023-05-20T07:47:33.106Z,18.78
2023-05-20T07:50:00.887Z,18.67
2023-05-20T07:52:35.630Z,18.60
2023-05-20T07:55:08.515Z,18.60
2023-05-20T07:57:35.747Z,18.61
2023-05-20T08:00:02.959Z,18.45
2023-05-20T08:02:32.279Z,18.31
2023-05-20T08:05:00.198Z,18.27
2023-05-20T08:07:27.498Z,18.39
2023-05-20T08:09:55.770Z,18.61
2023-05-20T08:12:23.138Z,18.82
2023-05-20T08:14:50.691Z,18.79
2023-05-20T08:17:18.372Z,18.67
2023-05-20T08:19:45.475Z,18.66
2023-05-20T08:22:14.440Z,18.80
2023-05-20T08:24:41.420Z,18.78
2023-05-20T08:27:08.744Z,18.89
2023-05-20T08:29:36.329Z,18.88
2023-05-20T08:32:04.549Z,18.87
2023-05-20T08:34:32.210Z,19.00
2023-05-20T08:36:59.218Z,19.13
2023-05-20T08:39:27.302Z,19.15
2023-05-20T08:41:55.980Z,19.00
2023-05-20T08:44:23.083Z,18.83
2023-05-20T08:46:50.329Z,18.69
2023-05-20T08:49:19.581Z,18.77
2023-05-20T08:51:47.450Z,18.83
2023-05-20T08:54:15.028Z,18.90
2023-05-20T09:00:13.282Z,19.37
2023-05-20T09:03:05.539Z,19.60
2023-05-20T09:05:33.038Z,19.50
2023-05-20T09:08:12.996Z,19.33
2023-05-20T09:10:40.822Z,19.27
2023-05-20T09:13:08.725Z,19.40
2023-05-20T09:15:36.343Z,19.40
2023-05-20T09:18:04.945Z,19.27
2023-05-20T09:20:41.205Z,19.00
2023-05-20T09:23:09.537Z,18.76
2023-05-20T09:25:37.426Z,18.60
2023-05-20T09:28:07.930Z,18.56
2023-05-20T09:30:35.336Z,18.52
2023-05-20T09:33:04.874Z,18.49
2023-05-20T09:35:34.755Z,18.44
2023-05-20T09:38:01.905Z,18.45
2023-05-20T09:40:29.568Z,18.39
2023-05-20T09:42:57.832Z,18.48
2023-05-20T09:45:24.922Z,18.76
2023-05-20T09:47:55.260Z,19.00
2023-05-20T09:50:23.459Z,19.01
2023-05-20T09:52:52.404Z,18.82
2023-05-20T09:55:21.218Z,18.53
2023-05-20T09:57:48.820Z,18.28
2023-05-20T10:00:17.758Z,18.04
2023-05-20T10:02:49.927Z,17.93
2023-05-20T10:05:24.429Z,17.79
2023-05-20T10:08:21.938Z,17.63
2023-05-20T10:11:16.869Z,17.45
2023-05-20T10:14:14.919Z,17.33
2023-05-20T10:17:02.410Z,17.33
2023-05-20T10:19:31.486Z,17.34
2023-05-20T10:22:03.133Z,17.29
2023-05-20T10:24:38.251Z,17.12
2023-05-20T10:27:08.709Z,17.07
2023-05-20T10:29:43.409Z,17.28
2023-05-20T10:32:10.583Z,17.28
2023-05-20T10:34:48.163Z,17.20
2023-05-20T10:37:29.089Z,17.09
2023-05-20T10:40:09.154Z,16.95
2023-05-20T10:42:36.231Z,16.83
2023-05-20T10:45:04.015Z,16.78
2023-05-20T10:47:32.491Z,16.69
2023-05-20T10:49:59.567Z,16.65
2023-05-20T10:52:26.607Z,16.65
2023-05-20T10:54:53.640Z,16.62
2023-05-20T10:57:21.477Z,16.56
2023-05-20T10:59:48.667Z,16.41
2023-05-20T11:02:16.473Z,16.30
2023-05-20T11:04:43.957Z,16.20
2023-05-20T11:07:11.141Z,16.09
2023-05-20T11:09:38.352Z,16.03
2023-05-20T11:12:05.990Z,15.97
2023-05-20T11:14:32.991Z,15.92
2023-05-20T11:17:00.499Z,15.87
2023-05-20T11:19:28.180Z,15.86
2023-05-20T11:21:55.719Z,15.80
2023-05-20T11:24:27.331Z,15.74
2023-05-20T11:26:56.099Z,15.71
2023-05-20T11:29:23.470Z,15.69
2023-05-20T11:31:53.347Z,15.67
2023-05-20T11:34:23.396Z,15.65
2023-05-20T11:36:59.222Z,15.68
2023-05-20T11:39:29.500Z,15.68
2023-05-20T11:41:57.293Z,15.65
2023-05-20T11:44:24.778Z,15.58
2023-05-20T11:46:51.851Z,15.57
2023-05-20T11:49:19.071Z,15.59
2023-05-20T11:51:46.283Z,15.63
2023-05-20T11:54:13.376Z,15.67
2023-05-20T11:56:43.547Z,15.70
2023-05-20T11:59:11.149Z,15.75
2023-05-20T12:01:43.070Z,15.78
2023-05-20T12:04:10.546Z,15.78
2023-05-20T12:06:37.759Z,15.81
2023-05-20T12:09:07.294Z,15.79
2023-05-20T12:11:35.880Z,15.78
2023-05-20T12:16:55.358Z,15.72
2023-05-20T12:19:22.610Z,15.70
2023-05-20T12:21:49.748Z,15.61
2023-05-20T12:24:16.844Z,15.50
2023-05-20T12:26:43.918Z,15.39
2023-05-20T12:29:10.844Z,15.31
2023-05-20T12:31:38.055Z,15.24
2023-05-20T12:34:05.267Z,15.23
2023-05-20T12:36:33.883Z,15.25
2023-05-20T12:39:01.287Z,15.27
2023-05-20T12:41:28.356Z,15.30
2023-05-20T12:43:55.507Z,15.33
2023-05-20T12:46:22.767Z,15.30
2023-05-20T12:48:49.969Z,15.33
2023-05-20T12:51:17.062Z,15.33
2023-05-20T12:53:44.180Z,15.33
2023-05-20T12:56:11.230Z,15.37
2023-05-20T12:58:38.241Z,15.39
2023-05-20T13:01:05.423Z,15.36
2023-05-20T13:03:32.722Z,15.36
2023-05-20T13:05:59.881Z,15.34
2023-05-20T13:08:28.703Z,15.37
2023-05-20T13:10:56.019Z,15.33
2023-05-20T13:13:23.864Z,15.35
2023-05-20T13:15:51.141Z,15.36
2023-05-20T13:18:19.362Z,15.38
2023-05-20T13:20:46.441Z,15.41
2023-05-20T13:23:13.515Z,15.44
2023-05-20T13:25:41.068Z,15.51
2023-05-20T13:28:08.264Z,15.53
2023-05-20T13:30:35.601Z,15.53
2023-05-20T13:33:02.930Z,15.55
2023-05-20T13:35:30.040Z,15.56
2023-05-20T13:37:57.267Z,15.52
2023-05-20T13:40:24.742Z,15.47
2023-05-20T13:42:51.714Z,15.41
2023-05-20T13:45:18.959Z,15.41
2023-05-20T13:47:46.439Z,15.37
2023-05-20T13:50:13.653Z,15.33
2023-05-20T13:52:40.778Z,15.34
2023-05-20T13:55:08.587Z,15.34
2023-05-20T13:57:35.779Z,15.33
2023-05-20T14:00:02.861Z,15.32
2023-05-20T14:02:36.503Z,15.34
2023-05-20T14:05:03.838Z,15.36
2023-05-20T14:07:31.930Z,15.37
2023-05-20T14:09:59.109Z,15.38
2023-05-20T14:12:26.320Z,15.45
2023-05-20T14:14:53.295Z,15.55
2023-05-20T14:17:20.606Z,15.58
2023-05-20T14:19:47.695Z,15.55
2023-05-20T14:22:15.793Z,15.45
2023-05-20T14:24:42.968Z,15.30
2023-05-20T14:27:11.512Z,15.26
2023-05-20T14:29:38.742Z,15.20
2023-05-20T14:32:05.969Z,15.10
2023-05-20T14:34:32.974Z,15.03
2023-05-20T14:37:05.664Z,14.99
2023-05-20T14:39:32.700Z,14.99
2023-05-20T14:41:59.816Z,14.94
2023-05-20T14:44:26.918Z,14.81
2023-05-20T14:46:53.995Z,14.77
2023-05-20T14:49:21.310Z,14.74
2023-05-20T14:51:48.587Z,14.63
2023-05-20T14:54:15.995Z,14.55
2023-05-20T14:56:43.019Z,14.49
2023-05-20T14:59:10.153Z,14.44
2023-05-20T15:01:37.358Z,14.41
2023-05-20T15:04:04.569Z,14.41
2023-05-20T15:06:33.713Z,14.40
2023-05-20T15:09:00.903Z,14.38
2023-05-20T15:11:28.162Z,14.39
2023-05-20T15:13:55.109Z,14.39
2023-05-20T15:16:24.460Z,14.33
2023-05-20T15:18:52.070Z,14.32
2023-05-20T15:21:19.319Z,14.24
2023-05-20T15:23:46.485Z,14.20
2023-05-20T15:26:13.626Z,14.16
2023-05-20T15:28:40.995Z,14.10
2023-05-20T15:31:08.069Z,14.05
2023-05-20T15:33:35.315Z,14.03
2023-05-20T15:36:02.581Z,14.01
2023-05-20T15:38:29.836Z,14.00
2023-05-20T15:40:57.271Z,13.99
2023-05-20T15:43:24.318Z,13.97
2023-05-20T15:45:51.441Z,13.97
2023-05-20T15:48:18.711Z,13.94
2023-05-20T15:50:45.773Z,13.95
2023-05-20T15:53:14.404Z,13.97
2023-05-20T15:55:42.858Z,13.96
2023-05-20T15:58:10.060Z,13.93
2023-05-20T16:00:37.322Z,13.91
2023-05-20T16:03:04.563Z,13.86
2023-05-20T16:05:31.726Z,13.82
2023-05-20T16:07:58.918Z,13.77
2023-05-20T16:10:27.730Z,13.70
2023-05-20T16:12:54.925Z,13.68
2023-05-20T16:15:22.212Z,13.62
2023-05-20T16:17:49.432Z,13.59
2023-05-20T16:20:16.547Z,13.59
2023-05-20T16:22:43.642Z,13.57
2023-05-20T16:25:14.238Z,13.55
2023-05-20T16:27:41.503Z,13.53
2023-05-20T16:30:09.839Z,13.50
2023-05-20T16:32:37.099Z,13.49
2023-05-20T16:35:05.086Z,13.46
2023-05-20T16:37:33.049Z,13.46
2023-05-20T16:40:00.309Z,13.43
2023-05-20T16:42:27.444Z,13.41
2023-05-20T16:44:54.721Z,13.40
2023-05-20T16:47:21.846Z,13.35
2023-05-20T16:49:48.993Z,13.33
2023-05-20T16:52:16.281Z,13.30
2023-05-20T16:54:43.544Z,13.28
2023-05-20T16:57:12.559Z,13.24
2023-05-20T16:59:39.777Z,13.22
2023-05-20T17:02:07.160Z,13.20
2023-05-20T17:04:34.267Z,13.15
2023-05-20T17:07:01.925Z,13.12
2023-05-20T17:09:29.258Z,13.09
2023-05-20T17:11:56.588Z,13.05
2023-05-20T17:14:23.777Z,13.01
2023-05-20T17:16:51.192Z,12.99
2023-05-20T17:19:18.440Z,12.91
2023-05-20T17:21:45.831Z,12.81
2023-05-20T17:24:13.023Z,12.76
2023-05-20T17:26:40.064Z,12.68
2023-05-20T17:29:07.138Z,12.62
2023-05-20T17:31:34.234Z,12.54
2023-05-20T17:34:02.002Z,12.51
2023-05-20T17:36:29.322Z,12.50
2023-05-20T17:38:57.153Z,12.44
2023-05-20T17:41:24.358Z,12.43
2023-05-20T17:43:51.529Z,12.40
2023-05-20T17:46:18.798Z,12.34
2023-05-20T17:48:52.273Z,12.31
2023-05-20T17:51:29.169Z,12.27
2023-05-20T17:53:57.055Z,12.27
2023-05-20T17:56:24.324Z,12.21
2023-05-20T17:58:52.541Z,12.18
2023-05-20T18:01:20.799Z,12.15
2023-05-20T18:03:48.290Z,12.12
2023-05-20T18:06:16.494Z,12.07
2023-05-20T18:08:44.020Z,11.98
2023-05-20T18:11:11.037Z,11.90
2023-05-20T18:13:38.293Z,11.82
2023-05-20T18:16:06.177Z,11.77
2023-05-20T18:18:33.324Z,11.70
2023-05-20T18:21:00.720Z,11.62
2023-05-20T18:23:27.925Z,11.59
2023-05-20T18:25:55.146Z,11.59
2023-05-20T18:28:22.691Z,11.54
2023-05-20T18:30:49.894Z,11.51
2023-05-20T18:33:17.108Z,11.46
2023-05-20T18:35:44.726Z,11.46
2023-05-20T18:38:12.025Z,11.40
2023-05-20T18:40:39.019Z,11.37
2023-05-20T18:43:06.057Z,11.35
2023-05-20T18:45:33.184Z,11.34
2023-05-20T18:48:00.488Z,11.32
2023-05-20T18:50:27.835Z,11.27
2023-05-20T18:52:54.879Z,11.26
2023-05-20T18:55:22.170Z,11.24
2023-05-20T18:57:49.199Z,11.24
2023-05-20T19:00:17.476Z,11.21
2023-05-20T19:02:44.808Z,11.20
2023-05-20T19:05:12.351Z,11.20
2023-05-20T19:07:39.748Z,11.15
2023-05-20T19:10:07.493Z,11.08
2023-05-20T19:12:34.792Z,10.99
2023-05-20T19:15:02.627Z,10.95
2023-05-20T19:17:33.285Z,10.90
2023-05-20T19:20:00.522Z,10.85
2023-05-20T19:22:27.506Z,10.80
2023-05-20T19:24:54.894Z,10.74
2023-05-20T19:27:22.217Z,10.69
2023-05-20T19:29:49.294Z,10.65
2023-05-20T19:32:16.559Z,10.65
2023-05-20T19:34:43.934Z,10.63
2023-05-20T19:37:11.491Z,10.59
2023-05-20T19:39:38.508Z,10.55
2023-05-20T19:42:05.763Z,10.43
2023-05-20T19:44:32.813Z,10.34
2023-05-20T19:47:00.101Z,10.30
2023-05-20T19:49:29.609Z,10.28
2023-05-20T19:51:56.973Z,10.30
2023-05-20T19:54:24.101Z,10.32
2023-05-20T19:56:51.280Z,10.29
2023-05-20T19:59:18.459Z,10.26
2023-05-20T20:01:45.624Z,10.22
2023-05-20T20:04:13.388Z,10.24
2023-05-20T20:06:40.539Z,10.28
2023-05-20T20:09:08.629Z,10.31
2023-05-20T20:11:36.373Z,10.31
2023-05-20T20:14:03.382Z,10.30
2023-05-20T20:16:30.694Z,10.31
2023-05-20T20:18:57.983Z,10.30
2023-05-20T20:21:25.889Z,10.23
2023-05-20T20:23:53.643Z,10.21
2023-05-20T20:26:25.927Z,10.14
2023-05-20T20:28:53.241Z,10.19
2023-05-20T20:31:20.422Z,10.16
2023-05-20T20:33:47.681Z,10.18
2023-05-20T20:36:14.964Z,10.22
2023-05-20T20:38:46.898Z,10.29
2023-05-20T20:41:16.376Z,10.29
2023-05-20T20:43:45.083Z,10.29
2023-05-20T20:46:15.670Z,10.29
2023-05-20T20:48:45.910Z,10.28
2023-05-20T20:51:14.189Z,10.20
2023-05-20T20:53:42.120Z,10.20
2023-05-20T20:56:12.409Z,10.22
2023-05-20T20:58:39.694Z,10.22
2023-05-20T21:01:07.081Z,10.22
2023-05-20T21:03:34.345Z,10.24
2023-05-20T21:06:02.127Z,10.23
2023-05-20T21:08:30.536Z,10.25
2023-05-20T21:10:59.541Z,10.19
2023-05-20T21:13:28.645Z,10.18
2023-05-20T21:15:56.039Z,10.15
2023-05-20T21:18:24.027Z,10.16
2023-05-20T21:20:52.000Z,10.13
2023-05-20T21:23:19.794Z,10.12
2023-05-20T21:25:47.098Z,10.13
2023-05-20T21:28:14.535Z,10.14
2023-05-20T21:30:41.696Z,10.15
2023-05-20T21:33:09.123Z,10.15
2023-05-20T21:35:36.613Z,10.15
2023-05-20T21:38:04.064Z,10.12
2023-05-20T21:40:31.296Z,10.11
2023-05-20T21:42:58.428Z,10.11
2023-05-20T21:45:25.509Z,10.13
2023-05-20T21:47:52.755Z,10.13
2023-05-20T21:50:19.870Z,10.07
2023-05-20T21:52:46.947Z,10.07
2023-05-20T21:55:14.187Z,10.06
2023-05-20T21:57:41.283Z,10.08
2023-05-20T22:00:10.566Z,10.11
2023-05-20T22:02:37.879Z,10.09
2023-05-20T22:05:05.440Z,10.09
2023-05-20T22:07:33.202Z,10.11
2023-05-20T22:10:00.795Z,10.12
2023-05-20T22:12:27.889Z,10.11
2023-05-20T22:14:55.148Z,10.08
2023-05-20T22:17:23.975Z,10.10
2023-05-20T22:19:51.912Z,10.16
2023-05-20T22:22:19.003Z,10.13
2023-05-20T22:24:46.087Z,10.11
2023-05-20T22:27:13.202Z,10.11
2023-05-20T22:29:40.297Z,10.12
2023-05-20T22:32:07.474Z,10.10
2023-05-20T22:34:34.437Z,10.08
2023-05-20T22:37:02.284Z,10.08
2023-05-20T22:39:29.430Z,10.11
2023-05-20T22:41:56.418Z,10.13
2023-05-20T22:44:23.607Z,10.15
2023-05-20T22:46:50.659Z,10.13
2023-05-20T22:49:18.814Z,10.18
2023-05-20T22:51:45.940Z,10.24
2023-05-20T22:54:13.005Z,10.27
2023-05-20T22:56:40.067Z,10.29
2023-05-20T22:59:07.120Z,10.29
2023-05-20T23:01:34.217Z,10.31
2023-05-20T23:04:01.468Z,10.31
2023-05-20T23:06:28.561Z,10.27
2023-05-20T23:08:55.764Z,10.29
2023-05-20T23:11:23.453Z,10.33
2023-05-20T23:13:50.578Z,10.37
2023-05-20T23:16:17.777Z,10.32
2023-05-20T23:18:45.032Z,10.32
2023-05-20T23:21:12.169Z,10.28
2023-05-20T23:23:39.314Z,10.31
2023-05-20T23:26:06.381Z,10.37
2023-05-20T23:28:33.429Z,10.40
2023-05-20T23:31:01.069Z,10.43
2023-05-20T23:33:29.550Z,10.46
2023-05-20T23:35:56.924Z,10.46
2023-05-20T23:38:24.371Z,10.46
2023-05-20T23:40:51.412Z,10.47
2023-05-20T23:43:18.515Z,10.43
2023-05-20T23:45:45.683Z,10.49
2023-05-20T23:48:13.704Z,10.51
2023-05-20T23:50:41.042Z,10.46
2023-05-20T23:53:08.271Z,10.46
2023-05-20T23:55:35.679Z,10.45
2023-05-20T23:58:02.943Z,10.45
